Time;durP1;ratioP1;P1;durP2;ratioP2;P2;SDS_P1;SDS_P2;PMS_P1;PMS_P2;Temp;Humidity;BMP_temperature;BMP_pressure;BME280_temperature;BME280_humidity;BME280_pressure;Samples;Min_cycle;Max_cycle;Signal;HPM_P1;HPM_P2
2022/04/28 00:02:33;;;;;;;7.68;2.30;;;;;;;;;;5071194;28;20040;-69
2022/04/28 00:05:38;;;;;;;7.43;2.20;;;;;;;;;;5070201;28;20389;-69
2022/04/28 00:08:42;;;;;;;3.83;1.90;;;;;;;;;;5069691;28;20496;-68
2022/04/28 00:11:49;;;;;;;4.63;1.70;;;;;;;;;;5071032;28;20036;-68
2022/04/28 00:14:54;;;;;;;7.47;2.20;;;;;;;;;;5070537;28;20036;-68
2022/04/28 00:17:58;;;;;;;10.30;2.42;;;;;;;;;;5069736;28;20045;-69
2022/04/28 00:21:02;;;;;;;11.93;2.72;;;;;;;;;;5070756;28;20047;-68
2022/04/28 00:24:07;;;;;;;11.38;2.70;;;;;;;;;;5070764;28;20392;-69
2022/04/28 00:27:11;;;;;;;5.93;2.30;;;;;;;;;;5070660;28;20044;-69
2022/04/28 00:30:15;;;;;;;7.93;2.90;;;;;;;;;;5069909;28;20481;-68
2022/04/28 00:33:20;;;;;;;7.25;3.13;;;;;;;;;;5069866;28;20041;-68
2022/04/28 00:36:24;;;;;;;5.88;3.08;;;;;;;;;;5070141;28;20041;-68
2022/04/28 00:39:29;;;;;;;6.40;2.72;;;;;;;;;;5070485;28;20045;-68
2022/04/28 00:42:33;;;;;;;5.50;2.67;;;;;;;;;;5070858;28;20048;-68
2022/04/28 00:45:37;;;;;;;6.97;2.45;;;;;;;;;;5070019;28;20041;-68
2022/04/28 00:52:05;;;;;;;8.35;2.10;;;;;;;;;;5069400;28;20043;-68
2022/04/28 00:55:09;;;;;;;4.32;2.30;;;;;;;;;;5069341;28;20041;-68
2022/04/28 00:58:14;;;;;;;7.35;2.58;;;;;;;;;;5069413;28;20044;-68
2022/04/28 01:01:18;;;;;;;5.65;2.17;;;;;;;;;;5069496;28;20029;-68
2022/04/28 01:04:22;;;;;;;10.57;2.13;;;;;;;;;;5069569;28;20048;-68
2022/04/28 01:07:26;;;;;;;4.50;1.80;;;;;;;;;;5070211;28;20384;-68
2022/04/28 01:10:31;;;;;;;5.28;2.40;;;;;;;;;;5070194;28;20040;-68
2022/04/28 01:13:36;;;;;;;6.85;2.28;;;;;;;;;;5069567;28;20036;-68
2022/04/28 01:16:49;;;;;;;6.65;2.35;;;;;;;;;;5071538;28;20040;-68
2022/04/28 01:19:53;;;;;;;2.50;1.73;;;;;;;;;;5072816;28;20040;-68
2022/04/28 01:22:58;;;;;;;5.03;1.63;;;;;;;;;;5073979;28;20052;-68
2022/04/28 01:26:03;;;;;;;4.57;1.65;;;;;;;;;;5073207;28;20040;-68
2022/04/28 01:29:07;;;;;;;7.93;1.70;;;;;;;;;;5072990;28;20385;-68
2022/04/28 01:32:11;;;;;;;5.10;1.80;;;;;;;;;;5073587;28;20044;-68
2022/04/28 01:35:20;;;;;;;5.20;2.00;;;;;;;;;;5072711;28;20037;-68
2022/04/28 01:38:24;;;;;;;7.78;1.67;;;;;;;;;;5072667;28;20052;-68
2022/04/28 01:41:30;;;;;;;5.38;1.33;;;;;;;;;;5072651;28;20036;-68
2022/04/28 01:44:35;;;;;;;2.38;1.23;;;;;;;;;;5073824;28;20049;-68
2022/04/28 01:47:39;;;;;;;5.15;1.70;;;;;;;;;;5072447;28;20032;-68
2022/04/28 01:58:13;;;;;;;4.60;1.60;;;;;;;;;;5072748;28;20044;-68
2022/04/28 02:01:44;;;;;;;4.28;1.33;;;;;;;;;;5064245;28;20036;-68
2022/04/28 02:04:48;;;;;;;2.47;1.35;;;;;;;;;;5072352;28;20045;-68
2022/04/28 02:07:52;;;;;;;4.03;1.10;;;;;;;;;;5072005;28;20045;-68
2022/04/28 02:10:58;;;;;;;4.90;1.20;;;;;;;;;;5072117;28;20112;-68
2022/04/28 02:14:34;;;;;;;7.07;1.65;;;;;;;;;;5072596;28;20449;-68
2022/04/28 02:17:50;;;;;;;7.78;1.50;;;;;;;;;;5072521;28;20040;-68
2022/04/28 02:20:56;;;;;;;5.13;1.30;;;;;;;;;;5071858;28;20028;-68
2022/04/28 02:24:00;;;;;;;6.85;1.30;;;;;;;;;;5071561;28;20024;-68
2022/04/28 02:27:05;;;;;;;4.07;1.17;;;;;;;;;;5071720;28;20044;-68
2022/04/28 02:30:09;;;;;;;4.15;1.30;;;;;;;;;;5072678;28;20036;-68
2022/04/28 02:33:18;;;;;;;4.18;1.10;;;;;;;;;;5071635;28;20040;-68
2022/04/28 02:36:46;;;;;;;7.40;1.20;;;;;;;;;;5071769;28;20032;-68
2022/04/28 02:39:51;;;;;;;11.20;1.40;;;;;;;;;;5071358;28;20052;-68
2022/04/28 02:42:55;;;;;;;4.32;1.08;;;;;;;;;;5071627;28;20404;-68
2022/04/28 02:45:59;;;;;;;5.80;1.48;;;;;;;;;;5072534;28;20397;-68
2022/04/28 02:49:13;;;;;;;3.05;1.23;;;;;;;;;;5071394;28;20500;-68
2022/04/28 02:52:18;;;;;;;2.50;1.45;;;;;;;;;;5071319;28;20045;-68
2022/04/28 02:55:26;;;;;;;4.50;1.08;;;;;;;;;;5071272;28;20040;-68
2022/04/28 02:58:32;;;;;;;4.35;1.35;;;;;;;;;;5071748;28;20378;-68
2022/04/28 03:01:37;;;;;;;2.58;0.98;;;;;;;;;;5071038;28;20036;-68
2022/04/28 03:04:42;;;;;;;9.73;1.30;;;;;;;;;;5071015;28;20508;-68
2022/04/28 03:11:12;;;;;;;15.93;1.42;;;;;;;;;;5071243;28;20224;-68
2022/04/28 03:14:16;;;;;;;3.08;1.08;;;;;;;;;;5071058;28;20511;-68
2022/04/28 03:17:21;;;;;;;2.10;1.20;;;;;;;;;;5070744;28;20369;-68
2022/04/28 03:20:25;;;;;;;7.13;1.27;;;;;;;;;;5070984;28;20044;-68
2022/04/28 03:23:30;;;;;;;8.18;1.23;;;;;;;;;;5071524;28;20032;-68
2022/04/28 03:26:37;;;;;;;7.90;1.48;;;;;;;;;;5071334;28;20044;-67
2022/04/28 03:29:44;;;;;;;11.60;1.48;;;;;;;;;;5070340;28;20040;-69
2022/04/28 03:32:49;;;;;;;11.40;1.50;;;;;;;;;;5070704;28;20507;-68
2022/04/28 03:35:53;;;;;;;2.63;1.40;;;;;;;;;;5070191;28;20040;-68
2022/04/28 03:38:57;;;;;;;4.40;1.20;;;;;;;;;;5070651;28;20591;-68
2022/04/28 03:42:02;;;;;;;8.10;1.60;;;;;;;;;;5070500;28;20037;-68
2022/04/28 03:45:07;;;;;;;5.78;1.40;;;;;;;;;;5070380;28;20044;-68
2022/04/28 03:48:16;;;;;;;5.10;1.30;;;;;;;;;;5070255;28;20044;-68
2022/04/28 03:51:22;;;;;;;5.55;1.20;;;;;;;;;;5070347;28;20401;-68
2022/04/28 03:54:27;;;;;;;4.43;1.30;;;;;;;;;;5071205;28;20037;-67
2022/04/28 03:57:32;;;;;;;4.10;2.20;;;;;;;;;;5069983;28;20048;-68
2022/04/28 04:00:37;;;;;;;3.28;1.60;;;;;;;;;;5070414;28;20044;-68
2022/04/28 04:03:46;;;;;;;4.63;1.27;;;;;;;;;;5069767;28;20036;-68
2022/04/28 04:06:51;;;;;;;3.95;1.20;;;;;;;;;;5070789;28;20896;-68
2022/04/28 04:10:13;;;;;;;4.75;1.30;;;;;;;;;;5071048;28;20401;-68
2022/04/28 04:13:24;;;;;;;8.43;1.27;;;;;;;;;;5070105;28;20044;-68
2022/04/28 04:16:31;;;;;;;4.00;0.90;;;;;;;;;;5058229;28;20263;-68
2022/04/28 04:19:56;;;;;;;4.68;1.10;;;;;;;;;;5070604;28;20053;-68
2022/04/28 04:23:01;;;;;;;2.97;1.38;;;;;;;;;;5069934;28;20493;-68
2022/04/28 04:26:05;;;;;;;8.27;1.15;;;;;;;;;;5058429;28;20036;-68
2022/04/28 04:29:10;;;;;;;4.88;1.23;;;;;;;;;;5070340;28;20032;-68
2022/04/28 04:32:33;;;;;;;2.28;1.00;;;;;;;;;;5070596;28;20369;-68
2022/04/28 04:35:48;;;;;;;4.57;1.10;;;;;;;;;;5070435;28;20050;-68
2022/04/28 04:38:52;;;;;;;8.63;1.02;;;;;;;;;;5069304;28;20048;-68
2022/04/28 04:41:57;;;;;;;3.33;1.10;;;;;;;;;;5069787;28;20033;-68
2022/04/28 04:45:01;;;;;;;3.90;1.00;;;;;;;;;;5069748;28;20041;-68
2022/04/28 04:48:12;;;;;;;10.27;1.53;;;;;;;;;;5069766;28;20044;-68
2022/04/28 04:51:21;;;;;;;7.38;1.10;;;;;;;;;;5059715;28;20047;-68
2022/04/28 04:54:43;;;;;;;6.88;1.70;;;;;;;;;;5074053;28;20029;-68
2022/04/28 04:57:48;;;;;;;3.70;1.25;;;;;;;;;;5074306;28;20472;-68
2022/04/28 05:00:52;;;;;;;8.73;1.30;;;;;;;;;;5073167;28;20048;-68
2022/04/28 05:04:00;;;;;;;7.47;1.83;;;;;;;;;;5074241;28;20032;-68
2022/04/28 05:07:09;;;;;;;4.07;1.25;;;;;;;;;;5072872;28;20535;-68
2022/04/28 05:10:15;;;;;;;8.50;1.17;;;;;;;;;;5073364;28;20040;-68
2022/04/28 05:13:19;;;;;;;3.38;1.00;;;;;;;;;;5073204;28;20369;-69
2022/04/28 05:16:32;;;;;;;12.55;1.50;;;;;;;;;;5073079;28;20048;-67
2022/04/28 05:20:13;;;;;;;6.13;2.25;;;;;;;;;;5073424;28;20051;-67
2022/04/28 05:23:50;;;;;;;6.03;1.35;;;;;;;;;;5072974;28;20473;-67
2022/04/28 05:27:00;;;;;;;6.97;1.00;;;;;;;;;;5073862;28;20066;-68
2022/04/28 05:30:39;;;;;;;5.38;1.00;;;;;;;;;;5073792;28;20036;-67
2022/04/28 05:34:09;;;;;;;3.30;1.05;;;;;;;;;;5073645;28;20040;-67
2022/04/28 05:37:20;;;;;;;3.95;0.80;;;;;;;;;;5072939;28;20040;-67
2022/04/28 05:40:25;;;;;;;6.45;0.75;;;;;;;;;;5072724;28;20048;-68
2022/04/28 05:46:53;;;;;;;9.98;1.00;;;;;;;;;;5073401;28;20051;-67
2022/04/28 05:49:58;;;;;;;10.98;0.90;;;;;;;;;;5072790;28;20028;-67
2022/04/28 05:53:03;;;;;;;5.22;1.00;;;;;;;;;;5072422;28;20071;-67
2022/04/28 05:56:07;;;;;;;4.88;0.90;;;;;;;;;;5073355;28;20040;-67
2022/04/28 05:59:20;;;;;;;7.47;0.70;;;;;;;;;;5072304;28;20048;-68
2022/04/28 06:02:24;;;;;;;3.17;0.90;;;;;;;;;;5072273;28;20033;-67
2022/04/28 06:05:29;;;;;;;13.30;1.30;;;;;;;;;;5072976;28;20568;-66
2022/04/28 06:08:34;;;;;;;8.18;0.90;;;;;;;;;;5071731;28;20052;-67
2022/04/28 06:11:38;;;;;;;11.57;0.98;;;;;;;;;;5071932;28;20045;-67
2022/04/28 06:14:42;;;;;;;9.32;1.00;;;;;;;;;;5072028;28;20044;-66
2022/04/28 06:18:02;;;;;;;5.88;1.27;;;;;;;;;;5071943;28;20045;-67
2022/04/28 06:21:07;;;;;;;2.92;1.17;;;;;;;;;;5072581;28;20040;-61
2022/04/28 06:24:15;;;;;;;3.55;0.98;;;;;;;;;;5071685;28;20033;-62
2022/04/28 06:27:19;;;;;;;1.80;1.00;;;;;;;;;;5071633;28;20036;-63
2022/04/28 06:30:27;;;;;;;5.05;1.00;;;;;;;;;;5071509;28;20041;-64
2022/04/28 06:33:41;;;;;;;8.00;1.95;;;;;;;;;;5071698;28;20037;-61
2022/04/28 06:36:55;;;;;;;2.03;0.98;;;;;;;;;;5071284;28;20045;-61
2022/04/28 06:40:03;;;;;;;3.30;1.05;;;;;;;;;;5071651;28;20056;-62
2022/04/28 06:43:07;;;;;;;8.15;1.17;;;;;;;;;;5071397;28;20033;-63
2022/04/28 06:46:30;;;;;;;7.93;1.70;;;;;;;;;;5072297;28;20033;-62
2022/04/28 06:50:07;;;;;;;2.80;1.38;;;;;;;;;;5071815;28;20040;-61
2022/04/28 06:53:30;;;;;;;7.68;1.60;;;;;;;;;;5071835;28;20041;-62
2022/04/28 06:56:47;;;;;;;13.43;1.40;;;;;;;;;;5070760;28;20028;-61
2022/04/28 06:59:52;;;;;;;5.28;1.20;;;;;;;;;;5070768;28;20466;-61
2022/04/28 07:02:58;;;;;;;6.22;1.27;;;;;;;;;;5071009;28;20036;-61
2022/04/28 07:06:06;;;;;;;7.25;1.30;;;;;;;;;;5071114;28;20373;-62
2022/04/28 07:09:10;;;;;;;5.15;1.48;;;;;;;;;;5070996;28;20040;-62
2022/04/28 07:12:16;;;;;;;10.35;1.50;;;;;;;;;;5059533;28;20040;-62
2022/04/28 07:15:40;;;;;;;6.88;1.27;;;;;;;;;;5070880;28;20047;-63
2022/04/28 07:19:05;;;;;;;5.15;1.50;;;;;;;;;;5071283;28;20390;-62
2022/04/28 07:22:10;;;;;;;2.90;1.50;;;;;;;;;;5070958;28;20370;-62
2022/04/28 07:25:14;;;;;;;5.50;1.40;;;;;;;;;;5071595;28;20032;-63
2022/04/28 07:28:20;;;;;;;6.15;1.30;;;;;;;;;;5070232;28;20040;-61
2022/04/28 07:31:39;;;;;;;7.22;1.20;;;;;;;;;;5071150;28;20044;-62
2022/04/28 07:34:49;;;;;;;7.10;1.80;;;;;;;;;;5071040;28;20045;-62
2022/04/28 07:38:12;;;;;;;9.32;1.20;;;;;;;;;;5071049;28;20052;-62
2022/04/28 07:41:26;;;;;;;11.43;1.27;;;;;;;;;;5070336;28;20048;-62
2022/04/28 07:44:30;;;;;;;2.50;1.17;;;;;;;;;;5070286;28;20147;-62
2022/04/28 07:47:35;;;;;;;6.35;1.35;;;;;;;;;;5069983;28;20044;-62
2022/04/28 07:50:50;;;;;;;5.18;1.35;;;;;;;;;;5070265;28;20389;-63
2022/04/28 07:54:06;;;;;;;7.30;1.40;;;;;;;;;;5070088;28;20398;-62
2022/04/28 07:57:10;;;;;;;9.30;1.20;;;;;;;;;;5069887;28;20041;-62
2022/04/28 08:00:15;;;;;;;13.38;1.55;;;;;;;;;;5070136;28;20389;-62
2022/04/28 08:03:27;;;;;;;10.13;1.40;;;;;;;;;;5070063;28;20051;-61
2022/04/28 08:06:32;;;;;;;6.38;1.55;;;;;;;;;;5069674;28;20047;-62
2022/04/28 08:09:37;;;;;;;9.30;2.30;;;;;;;;;;5070115;28;20382;-62
2022/04/28 08:12:42;;;;;;;10.00;1.13;;;;;;;;;;5070017;28;20036;-62
2022/04/28 08:16:09;;;;;;;17.42;1.30;;;;;;;;;;5070164;28;20051;-62
2022/04/28 08:19:19;;;;;;;3.10;1.40;;;;;;;;;;5069814;28;20051;-62
2022/04/28 08:22:30;;;;;;;9.55;2.38;;;;;;;;;;5070100;28;20040;-62
2022/04/28 08:25:35;;;;;;;7.22;1.58;;;;;;;;;;5071248;28;20484;-62
2022/04/28 08:28:39;;;;;;;9.98;1.40;;;;;;;;;;5076503;28;20044;-62
2022/04/28 08:31:44;;;;;;;9.75;1.90;;;;;;;;;;5076543;28;20045;-62
2022/04/28 08:34:50;;;;;;;10.60;1.45;;;;;;;;;;5076597;28;20040;-62
2022/04/28 08:37:54;;;;;;;8.93;1.75;;;;;;;;;;5076232;28;20404;-62
2022/04/28 08:41:04;;;;;;;4.93;1.80;;;;;;;;;;5076188;28;20385;-62
2022/04/28 08:44:47;;;;;;;5.20;1.98;;;;;;;;;;5077059;28;20036;-62
2022/04/28 08:48:10;;;;;;;4.38;1.83;;;;;;;;;;5082411;28;20040;-63
2022/04/28 08:51:42;;;;;;;4.13;1.70;;;;;;;;;;5075762;28;20037;-61
2022/04/28 08:54:47;;;;;;;10.73;1.80;;;;;;;;;;5076223;28;20476;-62
2022/04/28 08:57:51;;;;;;;7.85;1.52;;;;;;;;;;5076864;28;20349;-62
2022/04/28 09:00:55;;;;;;;11.93;1.60;;;;;;;;;;5076202;28;20041;-62
2022/04/28 09:04:05;;;;;;;3.50;1.42;;;;;;;;;;5076588;28;20090;-62
2022/04/28 09:07:42;;;;;;;6.43;1.33;;;;;;;;;;5075830;28;20049;-61
2022/04/28 09:11:12;;;;;;;8.18;1.52;;;;;;;;;;5076599;28;20032;-64
2022/04/28 09:14:25;;;;;;;6.60;1.88;;;;;;;;;;5076566;28;20036;-64
2022/04/28 09:17:42;;;;;;;4.55;1.45;;;;;;;;;;5076560;28;20166;-63
2022/04/28 09:20:50;;;;;;;6.57;1.37;;;;;;;;;;5076662;28;20040;-64
2022/04/28 09:23:54;;;;;;;4.43;1.58;;;;;;;;;;5076630;28;20036;-63
2022/04/28 09:27:02;;;;;;;8.05;1.60;;;;;;;;;;5075622;28;20036;-62
2022/04/28 09:30:07;;;;;;;7.03;1.65;;;;;;;;;;5075690;28;20029;-63
2022/04/28 09:33:23;;;;;;;3.67;1.70;;;;;;;;;;5075888;28;20044;-62
2022/04/28 09:36:31;;;;;;;4.95;1.70;;;;;;;;;;5075414;28;20381;-63
2022/04/28 09:43:05;;;;;;;5.90;1.55;;;;;;;;;;5072183;28;20048;-64
2022/04/28 09:46:14;;;;;;;9.82;2.75;;;;;;;;;;5072051;28;20373;-61
2022/04/28 09:49:21;;;;;;;7.20;2.13;;;;;;;;;;5072315;28;20445;-61
2022/04/28 09:52:45;;;;;;;16.63;1.85;;;;;;;;;;5072957;28;20036;-61
2022/04/28 09:56:05;;;;;;;13.05;2.08;;;;;;;;;;5073624;28;20051;-62
2022/04/28 09:59:32;;;;;;;12.32;1.90;;;;;;;;;;5072125;28;20424;-62
2022/04/28 10:02:38;;;;;;;9.10;1.42;;;;;;;;;;5071980;28;20063;-63
2022/04/28 10:05:42;;;;;;;3.65;1.30;;;;;;;;;;5073013;28;20040;-63
2022/04/28 10:09:11;;;;;;;2.97;0.90;;;;;;;;;;5073081;28;20041;-63
2022/04/28 10:12:18;;;;;;;6.93;1.20;;;;;;;;;;5071905;28;20048;-64
2022/04/28 10:16:02;;;;;;;5.80;1.38;;;;;;;;;;5072154;28;20036;-63
2022/04/28 10:19:28;;;;;;;2.85;1.30;;;;;;;;;;5072002;28;20481;-63
2022/04/28 10:22:40;;;;;;;8.75;1.55;;;;;;;;;;5072225;28;20040;-63
2022/04/28 10:33:04;;;;;;;5.03;1.20;;;;;;;;;;5072599;28;20040;-63
2022/04/28 10:36:22;;;;;;;6.80;1.20;;;;;;;;;;5071183;28;20346;-63
2022/04/28 10:39:39;;;;;;;5.10;1.17;;;;;;;;;;5071526;28;20048;-62
2022/04/28 10:42:57;;;;;;;4.88;1.10;;;;;;;;;;5072494;28;20040;-63
2022/04/28 10:46:04;;;;;;;7.50;1.20;;;;;;;;;;5072148;28;20040;-65
2022/04/28 10:49:08;;;;;;;2.38;1.20;;;;;;;;;;5071435;28;20032;-64
2022/04/28 10:52:23;;;;;;;2.50;1.10;;;;;;;;;;5071964;28;20385;-63
2022/04/28 10:55:41;;;;;;;9.38;1.10;;;;;;;;;;5071871;28;20036;-62
2022/04/28 10:58:45;;;;;;;6.22;0.90;;;;;;;;;;5071783;28;20032;-63
2022/04/28 11:01:49;;;;;;;3.00;1.00;;;;;;;;;;5071622;28;20036;-62
2022/04/28 11:05:03;;;;;;;7.45;0.90;;;;;;;;;;5071833;28;20040;-63
2022/04/28 11:08:09;;;;;;;8.10;1.15;;;;;;;;;;5071418;28;20048;-63
2022/04/28 11:11:14;;;;;;;3.50;0.90;;;;;;;;;;5071271;28;20040;-63
2022/04/28 11:14:20;;;;;;;8.07;1.35;;;;;;;;;;5071579;28;20040;-63
2022/04/28 11:17:24;;;;;;;4.05;0.82;;;;;;;;;;5071411;28;20037;-63
2022/04/28 11:20:29;;;;;;;6.70;1.10;;;;;;;;;;5071409;28;20044;-63
2022/04/28 11:23:43;;;;;;;5.72;0.95;;;;;;;;;;5070784;28;20040;-62
2022/04/28 11:27:19;;;;;;;4.60;1.08;;;;;;;;;;5071544;28;20041;-63
2022/04/28 11:30:33;;;;;;;2.20;0.80;;;;;;;;;;5070648;28;20033;-63
2022/04/28 11:33:41;;;;;;;3.25;0.88;;;;;;;;;;5070557;28;20524;-63
2022/04/28 11:36:46;;;;;;;3.67;1.40;;;;;;;;;;5070931;28;20036;-63
2022/04/28 11:39:51;;;;;;;2.38;1.00;;;;;;;;;;5071249;28;20045;-63
2022/04/28 11:42:57;;;;;;;2.72;1.13;;;;;;;;;;5071200;28;20036;-63
2022/04/28 11:46:02;;;;;;;9.57;1.20;;;;;;;;;;5071053;28;20469;-63
2022/04/28 11:49:06;;;;;;;4.05;1.13;;;;;;;;;;5070769;28;20370;-63
2022/04/28 11:52:25;;;;;;;5.07;1.33;;;;;;;;;;5071229;28;20032;-63
2022/04/28 11:55:30;;;;;;;4.22;1.15;;;;;;;;;;5058534;28;20040;-63
2022/04/28 11:58:35;;;;;;;7.32;1.25;;;;;;;;;;5071222;28;20036;-61
2022/04/28 12:01:40;;;;;;;7.03;1.27;;;;;;;;;;5070309;28;20044;-61
2022/04/28 12:04:44;;;;;;;3.92;1.00;;;;;;;;;;5070800;28;20476;-61
2022/04/28 12:07:52;;;;;;;7.63;1.30;;;;;;;;;;5070658;28;20044;-61
2022/04/28 12:14:22;;;;;;;9.15;1.20;;;;;;;;;;5070916;28;20032;-61
2022/04/28 12:20:55;;;;;;;4.85;1.02;;;;;;;;;;5070587;28;20049;-61
2022/04/28 12:24:00;;;;;;;7.35;1.48;;;;;;;;;;5070829;28;20041;-61
2022/04/28 12:27:06;;;;;;;5.50;1.02;;;;;;;;;;5070455;28;20032;-61
2022/04/28 12:30:13;;;;;;;3.35;1.25;;;;;;;;;;5070800;28;20382;-62
2022/04/28 12:33:19;;;;;;;10.27;1.15;;;;;;;;;;5070735;28;20036;-63
2022/04/28 12:36:24;;;;;;;3.53;1.10;;;;;;;;;;5070540;28;20067;-64
2022/04/28 12:39:29;;;;;;;2.25;1.00;;;;;;;;;;5070644;28;20037;-63
2022/04/28 12:42:49;;;;;;;4.38;1.40;;;;;;;;;;5070704;28;20048;-64
2022/04/28 12:45:56;;;;;;;7.93;1.60;;;;;;;;;;5070574;28;20040;-63
2022/04/28 12:49:01;;;;;;;13.95;1.98;;;;;;;;;;5070779;28;20036;-62
2022/04/28 12:52:05;;;;;;;3.92;1.27;;;;;;;;;;5070384;28;20047;-62
2022/04/28 12:55:10;;;;;;;4.85;1.50;;;;;;;;;;5070545;28;20468;-62
2022/04/28 12:58:16;;;;;;;5.50;1.33;;;;;;;;;;5070345;28;20040;-63
2022/04/28 13:01:20;;;;;;;5.82;1.58;;;;;;;;;;5070340;28;20044;-64
2022/04/28 13:04:26;;;;;;;4.82;1.23;;;;;;;;;;5070445;28;20025;-62
2022/04/28 13:07:30;;;;;;;7.82;2.40;;;;;;;;;;5069102;28;20045;-62
2022/04/28 13:10:35;;;;;;;6.28;1.50;;;;;;;;;;5070348;28;20516;-61
2022/04/28 13:13:39;;;;;;;2.72;1.50;;;;;;;;;;5073523;28;20045;-61
2022/04/28 13:16:44;;;;;;;4.30;1.45;;;;;;;;;;5073804;28;20488;-61
2022/04/28 13:19:48;;;;;;;9.10;1.75;;;;;;;;;;5074029;28;20040;-61
2022/04/28 13:22:52;;;;;;;5.43;1.50;;;;;;;;;;5074047;28;20053;-63
2022/04/28 13:25:57;;;;;;;3.40;1.60;;;;;;;;;;5072550;28;20045;-62
2022/04/28 13:29:01;;;;;;;6.95;1.42;;;;;;;;;;5073595;28;20037;-61
2022/04/28 13:32:09;;;;;;;7.15;1.70;;;;;;;;;;5073794;28;20036;-63
2022/04/28 13:35:13;;;;;;;3.03;1.48;;;;;;;;;;5073599;28;20048;-61
2022/04/28 13:38:17;;;;;;;1.88;1.42;;;;;;;;;;5073675;28;20040;-62
2022/04/28 13:41:22;;;;;;;6.70;1.52;;;;;;;;;;5073690;28;20052;-62
2022/04/28 13:44:27;;;;;;;3.88;1.63;;;;;;;;;;5073730;28;20029;-61
2022/04/28 13:47:31;;;;;;;4.13;1.52;;;;;;;;;;5073623;28;20036;-62
2022/04/28 13:50:36;;;;;;;3.47;1.63;;;;;;;;;;5073742;28;20029;-62
2022/04/28 13:53:42;;;;;;;5.30;1.90;;;;;;;;;;5073407;28;20100;-61
2022/04/28 13:56:46;;;;;;;7.30;2.03;;;;;;;;;;5073539;28;20032;-62
2022/04/28 13:59:51;;;;;;;6.38;1.65;;;;;;;;;;5073207;28;20048;-62
2022/04/28 14:02:55;;;;;;;6.70;1.90;;;;;;;;;;5073359;28;20041;-62
2022/04/28 14:06:01;;;;;;;9.18;3.00;;;;;;;;;;5072151;28;20464;-62
2022/04/28 14:09:05;;;;;;;9.65;2.30;;;;;;;;;;5073037;28;20433;-62
2022/04/28 14:12:09;;;;;;;5.95;2.20;;;;;;;;;;5072877;28;20040;-61
2022/04/28 14:15:15;;;;;;;14.27;3.28;;;;;;;;;;5073033;28;20385;-62
2022/04/28 14:18:19;;;;;;;5.53;2.42;;;;;;;;;;5072754;28;20045;-61
2022/04/28 14:21:23;;;;;;;8.05;2.20;;;;;;;;;;5071716;28;20048;-62
2022/04/28 14:24:28;;;;;;;11.20;2.63;;;;;;;;;;5071827;28;20028;-62
2022/04/28 14:27:35;;;;;;;9.77;2.13;;;;;;;;;;5072403;28;20507;-62
2022/04/28 14:30:42;;;;;;;4.53;1.65;;;;;;;;;;5071789;28;20028;-61
2022/04/28 14:33:46;;;;;;;6.03;1.80;;;;;;;;;;5072505;28;20040;-62
2022/04/28 14:36:51;;;;;;;14.20;1.95;;;;;;;;;;5072332;28;20036;-62
2022/04/28 14:39:55;;;;;;;6.97;2.03;;;;;;;;;;5072182;28;20495;-63
2022/04/28 14:42:59;;;;;;;4.85;1.95;;;;;;;;;;5072340;28;20040;-64
2022/04/28 14:46:04;;;;;;;5.90;1.60;;;;;;;;;;5071823;28;20036;-66
2022/04/28 14:52:33;;;;;;;10.02;1.75;;;;;;;;;;5072059;28;20044;-63
2022/04/28 14:55:37;;;;;;;7.57;2.20;;;;;;;;;;5071882;28;20503;-63
2022/04/28 14:58:42;;;;;;;6.65;1.80;;;;;;;;;;5071922;28;20477;-63
2022/04/28 15:01:46;;;;;;;5.63;1.90;;;;;;;;;;5072040;28;20381;-62
2022/04/28 15:04:50;;;;;;;8.98;2.30;;;;;;;;;;5071651;28;20044;-63
2022/04/28 15:07:55;;;;;;;6.72;2.00;;;;;;;;;;5071443;28;20052;-64
2022/04/28 15:11:00;;;;;;;4.55;2.10;;;;;;;;;;5072389;28;20037;-63
2022/04/28 15:14:04;;;;;;;12.25;2.45;;;;;;;;;;5071923;28;20040;-62
2022/04/28 15:17:10;;;;;;;5.00;1.83;;;;;;;;;;5070884;28;20043;-62
2022/04/28 15:20:14;;;;;;;9.50;2.40;;;;;;;;;;5071144;28;20052;-63
2022/04/28 15:23:18;;;;;;;4.55;2.40;;;;;;;;;;5071154;28;20044;-61
2022/04/28 15:26:22;;;;;;;3.47;2.03;;;;;;;;;;5070900;28;20044;-62
2022/04/28 15:29:26;;;;;;;4.22;1.98;;;;;;;;;;5071027;28;20140;-61
2022/04/28 15:32:32;;;;;;;5.43;2.08;;;;;;;;;;5071107;28;20040;-63
2022/04/28 15:35:36;;;;;;;9.35;2.03;;;;;;;;;;5071013;28;20036;-63
2022/04/28 15:38:41;;;;;;;6.60;2.25;;;;;;;;;;5071133;28;20041;-64
2022/04/28 15:41:45;;;;;;;10.90;2.13;;;;;;;;;;5071114;28;20370;-62
2022/04/28 15:44:49;;;;;;;8.65;2.40;;;;;;;;;;5070686;28;20051;-62
2022/04/28 15:47:54;;;;;;;3.92;2.00;;;;;;;;;;5069694;28;20040;-63
2022/04/28 15:50:58;;;;;;;7.38;2.50;;;;;;;;;;5070813;28;20037;-62
2022/04/28 15:54:03;;;;;;;10.45;2.60;;;;;;;;;;5071195;28;20041;-64
2022/04/28 15:57:09;;;;;;;5.95;2.33;;;;;;;;;;5070716;28;20392;-65
2022/04/28 16:00:13;;;;;;;4.78;2.35;;;;;;;;;;5070741;28;20048;-63
2022/04/28 16:03:18;;;;;;;4.80;2.80;;;;;;;;;;5070636;28;20465;-63
2022/04/28 16:06:22;;;;;;;5.20;2.40;;;;;;;;;;5070677;28;20041;-63
2022/04/28 16:09:26;;;;;;;6.38;2.60;;;;;;;;;;5070755;28;20401;-62
2022/04/28 16:12:31;;;;;;;9.30;2.92;;;;;;;;;;5070699;28;20495;-62
2022/04/28 16:15:36;;;;;;;6.20;2.65;;;;;;;;;;5069979;28;20139;-63
2022/04/28 16:18:41;;;;;;;9.13;3.08;;;;;;;;;;5069733;28;20048;-63
2022/04/28 16:21:46;;;;;;;4.57;2.75;;;;;;;;;;5070478;28;20048;-62
2022/04/28 16:24:55;;;;;;;4.35;2.30;;;;;;;;;;5070409;28;20040;-62
2022/04/28 16:27:59;;;;;;;9.18;3.08;;;;;;;;;;5070530;28;20044;-65
2022/04/28 16:31:04;;;;;;;10.77;3.20;;;;;;;;;;5070212;28;20044;-62
2022/04/28 16:34:08;;;;;;;14.35;3.42;;;;;;;;;;5070462;28;20507;-62
2022/04/28 16:37:12;;;;;;;7.40;3.33;;;;;;;;;;5070193;28;20400;-61
2022/04/28 16:40:16;;;;;;;5.45;3.05;;;;;;;;;;5069776;28;20048;-62
2022/04/28 16:43:21;;;;;;;18.63;3.40;;;;;;;;;;5070365;28;20041;-62
2022/04/28 16:46:26;;;;;;;8.50;3.40;;;;;;;;;;5070122;28;20052;-63
2022/04/28 16:49:31;;;;;;;15.77;3.50;;;;;;;;;;5074343;28;20160;-62
2022/04/28 16:52:35;;;;;;;12.43;3.42;;;;;;;;;;5073526;28;20428;-63
2022/04/28 16:55:40;;;;;;;9.60;3.22;;;;;;;;;;5073795;28;20047;-62
2022/04/28 16:58:46;;;;;;;6.20;3.20;;;;;;;;;;5074187;28;20040;-61
2022/04/28 17:01:50;;;;;;;10.35;3.50;;;;;;;;;;5073579;28;20041;-63
2022/04/28 17:04:55;;;;;;;8.35;2.95;;;;;;;;;;5072408;28;20047;-62
2022/04/28 17:08:00;;;;;;;16.92;3.47;;;;;;;;;;5073269;28;20385;-62
2022/04/28 17:11:04;;;;;;;7.80;3.35;;;;;;;;;;5073706;28;20042;-67
2022/04/28 17:14:09;;;;;;;14.35;3.42;;;;;;;;;;5073891;28;20037;-68
2022/04/28 17:17:13;;;;;;;13.88;3.90;;;;;;;;;;5072734;28;20051;-71
2022/04/28 17:20:17;;;;;;;7.57;3.55;;;;;;;;;;5073488;28;20048;-70
2022/04/28 17:23:22;;;;;;;7.30;3.08;;;;;;;;;;5073610;28;20516;-71
2022/04/28 17:26:27;;;;;;;10.60;3.33;;;;;;;;;;5073332;28;20440;-68
2022/04/28 17:29:32;;;;;;;10.80;3.42;;;;;;;;;;5073378;28;20043;-68
2022/04/28 17:32:36;;;;;;;14.80;3.88;;;;;;;;;;5073431;28;20051;-67
2022/04/28 17:35:41;;;;;;;9.13;3.78;;;;;;;;;;5070949;28;20400;-69
2022/04/28 17:38:45;;;;;;;9.38;3.35;;;;;;;;;;5073303;28;20040;-69
2022/04/28 17:41:49;;;;;;;5.38;3.90;;;;;;;;;;5072020;28;20394;-68
2022/04/28 17:44:54;;;;;;;8.73;3.35;;;;;;;;;;5073022;28;20350;-69
2022/04/28 17:47:58;;;;;;;12.32;3.17;;;;;;;;;;5073296;28;20032;-68
2022/04/28 17:51:03;;;;;;;16.48;3.83;;;;;;;;;;5073256;28;20050;-68
2022/04/28 17:54:08;;;;;;;11.57;3.50;;;;;;;;;;5072884;28;20527;-67
2022/04/28 18:00:35;;;;;;;15.55;3.67;;;;;;;;;;5060127;28;20401;-68
2022/04/28 18:03:40;;;;;;;8.38;3.28;;;;;;;;;;5073260;28;20055;-68
2022/04/28 18:06:44;;;;;;;5.75;3.67;;;;;;;;;;5072517;28;20044;-68
2022/04/28 18:09:49;;;;;;;10.27;4.07;;;;;;;;;;5072928;28;20036;-68
2022/04/28 18:12:53;;;;;;;5.43;3.30;;;;;;;;;;5072651;28;20055;-70
2022/04/28 18:15:57;;;;;;;8.43;3.28;;;;;;;;;;5072376;28;20040;-69
2022/04/28 18:19:02;;;;;;;11.02;3.38;;;;;;;;;;5072949;28;20040;-68
2022/04/28 18:22:06;;;;;;;6.40;3.05;;;;;;;;;;5072599;28;20043;-69
2022/04/28 18:25:11;;;;;;;6.97;3.10;;;;;;;;;;5072590;28;20369;-69
2022/04/28 18:28:17;;;;;;;12.40;3.60;;;;;;;;;;5072166;28;20381;-68
2022/04/28 18:31:21;;;;;;;5.78;2.53;;;;;;;;;;5072507;28;20422;-69
2022/04/28 18:34:26;;;;;;;9.98;2.85;;;;;;;;;;5072431;28;20032;-68
2022/04/28 18:44:28;;;;;;;9.90;4.00;;;;;;;;;;5072442;28;20457;-69
2022/04/28 18:47:32;;;;;;;8.88;2.67;;;;;;;;;;5072114;28;20037;-68
2022/04/28 18:50:37;;;;;;;12.05;2.92;;;;;;;;;;5072006;28;20033;-68
2022/04/28 18:53:41;;;;;;;5.10;2.60;;;;;;;;;;5072214;28;20067;-67
2022/04/28 18:56:45;;;;;;;5.53;3.13;;;;;;;;;;5070969;28;20036;-67
2022/04/28 18:59:52;;;;;;;12.05;2.70;;;;;;;;;;5072077;28;20041;-68
2022/04/28 19:02:58;;;;;;;9.82;2.95;;;;;;;;;;5071093;28;20048;-68
2022/04/28 19:06:02;;;;;;;6.93;2.72;;;;;;;;;;5071931;28;20036;-68
2022/04/28 19:09:07;;;;;;;5.63;2.40;;;;;;;;;;5071574;28;20045;-68
2022/04/28 19:12:11;;;;;;;3.25;2.40;;;;;;;;;;5071645;28;20037;-69
2022/04/28 19:15:15;;;;;;;4.60;2.33;;;;;;;;;;5071598;28;20048;-69
2022/04/28 19:18:20;;;;;;;5.65;2.70;;;;;;;;;;5071621;28;20378;-70
2022/04/28 19:21:24;;;;;;;5.38;2.40;;;;;;;;;;5071395;28;20044;-69
2022/04/28 19:24:29;;;;;;;6.60;2.45;;;;;;;;;;5071629;28;20037;-69
2022/04/28 19:27:34;;;;;;;6.65;2.40;;;;;;;;;;5071174;28;20286;-70
2022/04/28 19:30:38;;;;;;;7.93;2.90;;;;;;;;;;5071070;28;20040;-69
2022/04/28 19:33:43;;;;;;;7.05;3.28;;;;;;;;;;5070217;28;20476;-69